Share

Burwell, NE

Sharp (KODX) Elev 2070 ft | 41.62 °N, 98.95 °W | Change Station

Current weather conditions updated 6 minutes ago

Clear
Clear
53 °F
Feels Like 53 °F
N
15
Wind Variable Wind from NNW
Sunrise 6:47 AM
Sunset 8:24 PM
Moon Waning Gibbous

Today is forecast to be Much Cooler than yesterday.

Pressure 29.99 in
Visibility 10.0 miles
Clouds Clear
Dew Point 42 °F
Humidity 66%
Rainfall 0.04 in
Snow Depth Not available.
UV 0 out of 16
Pollen 7.80 out of 12
Air Quality Not available.
Flu Activity Sporadic
METAR KODX 210953Z AUTO 34013KT 10SM CLR 12/06 A3000 RMK AO2 SLP154 T01170056 $

More Conditions Fewer Conditions

Pressure 29.99 in
Visibility 10.0 miles
Clouds Clear
Dew Point 42 °F
Humidity 66%
Rainfall 0.04 in
Snow Depth Not available.
UV 0 out of 16
Pollen 7.80 out of 12
Air Quality Not available.
Flu Activity Sporadic
METAR KODX 210953Z AUTO 34013KT 10SM CLR 12/06 A3000 RMK AO2 SLP154 T01170056 $

More Conditions Fewer Conditions

10-Day Weather Forecast

Almanac

Astronomy

Apr. 21, 2014 Rise Set
Actual Time 6:47 AM CDT 8:24 PM CDT
Civil Twilight 6:17 AM CDT 8:53 PM CDT
Nautical Twilight 5:42 AM CDT 9:29 PM CDT
Astronomical Twilight 5:04 AM CDT 10:07 PM CDT
Moon 1:56 AM CDT 12:14 PM CDT
Length of Visible Light 14h 35m
Length of Day
13h 36m
Tomorrow will be 2m 35s longer.
Waning Gibbous, 60% of the Moon is Illuminated
Today
Waning Gibbous
Apr 22
Last Quarter
Apr 29
New
May 6
First Quarter
May 14
Full

Today's Extremes

State Highs State Lows

Community

  • Snowy Robin
    Snowy Robin
  • Sun Pillar and Geese
    Sun Pillar and Geese
  • Showers on the Way
    Showers on the Way
  • Easter Morning Fog
    Easter Morning Fog
  • Easter Dance
    Easter Dance

WunderPhotos

Upload Photos

1,703,579 photos uploaded!

WunderBlogs® & News

Nearby

Snow Depth

Station Depth Elevation
No new snow has been reported.

Coastal Water Temperatures

Place Temperature
No Stations Reporting

Earthquake Activity

City Distance Mag. Time & Date
No recent earthquake activity has been reported nearby.
Minimum magnitude displayed is 2.5.

Nearby Weather Stations

Station Location Temp. Dew Point Humidity Wind Precip. Elev Updated Type
Sargent, Sargent, NE 53.4 °F 38 °F 57% NNW  at  4.0 mph 0.00 in / hr 2314 ft 4:46 AM CDT Normal

Show More Stations Show Fewer Stations

What do you think?

We're not finished. Please let us know what you like, what you don't like, and what you are still missing.